sensor_id;sensor_type;location;lat;lon;timestamp;P1;durP1;ratioP1;P2;durP2;ratioP2
8574;SDS011;4325;42.520;27.448;2023-12-14T00:00:15;36.60;;;19.97;;
8574;SDS011;4325;42.520;27.448;2023-12-14T00:02:43;37.93;;;20.27;;
8574;SDS011;4325;42.520;27.448;2023-12-14T00:05:12;34.73;;;19.87;;
8574;SDS011;4325;42.520;27.448;2023-12-14T00:07:39;34.87;;;19.13;;
8574;SDS011;4325;42.520;27.448;2023-12-14T00:10:06;37.13;;;19.23;;
8574;SDS011;4325;42.520;27.448;2023-12-14T00:12:34;36.93;;;19.00;;
8574;SDS011;4325;42.520;27.448;2023-12-14T00:15:01;37.20;;;19.70;;
8574;SDS011;4325;42.520;27.448;2023-12-14T00:17:28;34.33;;;18.23;;
8574;SDS011;4325;42.520;27.448;2023-12-14T00:19:55;34.40;;;18.53;;
8574;SDS011;4325;42.520;27.448;2023-12-14T00:22:23;36.60;;;19.40;;
8574;SDS011;4325;42.520;27.448;2023-12-14T00:24:50;35.03;;;19.30;;
8574;SDS011;4325;42.520;27.448;2023-12-14T00:27:17;33.20;;;18.27;;
8574;SDS011;4325;42.520;27.448;2023-12-14T00:29:44;33.07;;;17.93;;
8574;SDS011;4325;42.520;27.448;2023-12-14T00:32:11;31.17;;;18.80;;
8574;SDS011;4325;42.520;27.448;2023-12-14T00:34:38;33.57;;;19.23;;
8574;SDS011;4325;42.520;27.448;2023-12-14T00:37:06;32.30;;;18.80;;
8574;SDS011;4325;42.520;27.448;2023-12-14T00:39:34;34.37;;;18.03;;
8574;SDS011;4325;42.520;27.448;2023-12-14T00:42:01;32.00;;;18.17;;
8574;SDS011;4325;42.520;27.448;2023-12-14T00:44:29;35.07;;;18.53;;
8574;SDS011;4325;42.520;27.448;2023-12-14T00:46:56;28.90;;;17.13;;
8574;SDS011;4325;42.520;27.448;2023-12-14T00:49:25;29.67;;;17.87;;
8574;SDS011;4325;42.520;27.448;2023-12-14T00:51:53;33.00;;;18.40;;
8574;SDS011;4325;42.520;27.448;2023-12-14T00:54:20;33.03;;;18.80;;
8574;SDS011;4325;42.520;27.448;2023-12-14T00:56:49;37.27;;;18.97;;
8574;SDS011;4325;42.520;27.448;2023-12-14T00:59:16;33.30;;;19.03;;
8574;SDS011;4325;42.520;27.448;2023-12-14T01:01:43;34.27;;;19.47;;
8574;SDS011;4325;42.520;27.448;2023-12-14T01:04:10;30.70;;;17.47;;
8574;SDS011;4325;42.520;27.448;2023-12-14T01:06:37;33.60;;;18.97;;
8574;SDS011;4325;42.520;27.448;2023-12-14T01:09:04;33.20;;;18.97;;
8574;SDS011;4325;42.520;27.448;2023-12-14T01:11:31;30.90;;;18.00;;
8574;SDS011;4325;42.520;27.448;2023-12-14T01:14:00;32.50;;;18.13;;
8574;SDS011;4325;42.520;27.448;2023-12-14T01:16:27;30.60;;;18.93;;
8574;SDS011;4325;42.520;27.448;2023-12-14T01:18:54;32.07;;;18.03;;
8574;SDS011;4325;42.520;27.448;2023-12-14T01:21:21;30.10;;;17.23;;
8574;SDS011;4325;42.520;27.448;2023-12-14T01:23:48;32.43;;;17.73;;
8574;SDS011;4325;42.520;27.448;2023-12-14T01:26:15;29.73;;;17.57;;
8574;SDS011;4325;42.520;27.448;2023-12-14T01:28:43;32.30;;;17.93;;
8574;SDS011;4325;42.520;27.448;2023-12-14T01:31:12;31.87;;;17.67;;
8574;SDS011;4325;42.520;27.448;2023-12-14T01:33:39;29.50;;;18.00;;
8574;SDS011;4325;42.520;27.448;2023-12-14T01:36:06;30.60;;;17.27;;
8574;SDS011;4325;42.520;27.448;2023-12-14T01:38:34;25.90;;;15.07;;
8574;SDS011;4325;42.520;27.448;2023-12-14T01:41:01;30.30;;;16.60;;
8574;SDS011;4325;42.520;27.448;2023-12-14T01:43:28;31.17;;;17.37;;
8574;SDS011;4325;42.520;27.448;2023-12-14T01:45:55;30.67;;;17.90;;
8574;SDS011;4325;42.520;27.448;2023-12-14T01:48:23;26.30;;;14.83;;
8574;SDS011;4325;42.520;27.448;2023-12-14T01:50:50;26.37;;;16.13;;
8574;SDS011;4325;42.520;27.448;2023-12-14T01:53:17;31.73;;;17.00;;
8574;SDS011;4325;42.520;27.448;2023-12-14T01:55:44;27.40;;;15.47;;
8574;SDS011;4325;42.520;27.448;2023-12-14T01:58:11;31.33;;;16.67;;
8574;SDS011;4325;42.520;27.448;2023-12-14T02:00:39;25.97;;;15.67;;
8574;SDS011;4325;42.520;27.448;2023-12-14T02:03:09;27.10;;;15.80;;
8574;SDS011;4325;42.520;27.448;2023-12-14T02:05:38;28.20;;;15.37;;
8574;SDS011;4325;42.520;27.448;2023-12-14T02:08:05;25.33;;;14.83;;
8574;SDS011;4325;42.520;27.448;2023-12-14T02:10:32;24.10;;;14.43;;
8574;SDS011;4325;42.520;27.448;2023-12-14T02:13:00;29.17;;;16.17;;
8574;SDS011;4325;42.520;27.448;2023-12-14T02:15:28;21.87;;;14.03;;
8574;SDS011;4325;42.520;27.448;2023-12-14T02:17:55;24.47;;;15.30;;
8574;SDS011;4325;42.520;27.448;2023-12-14T02:20:22;25.03;;;15.67;;
8574;SDS011;4325;42.520;27.448;2023-12-14T02:22:51;23.87;;;14.73;;
8574;SDS011;4325;42.520;27.448;2023-12-14T02:25:18;26.57;;;15.07;;
8574;SDS011;4325;42.520;27.448;2023-12-14T02:27:46;26.33;;;14.73;;
8574;SDS011;4325;42.520;27.448;2023-12-14T02:30:14;22.97;;;14.30;;
8574;SDS011;4325;42.520;27.448;2023-12-14T02:32:41;25.50;;;15.60;;
8574;SDS011;4325;42.520;27.448;2023-12-14T02:35:08;24.27;;;14.67;;
8574;SDS011;4325;42.520;27.448;2023-12-14T02:37:36;26.30;;;15.43;;
8574;SDS011;4325;42.520;27.448;2023-12-14T02:40:07;25.50;;;14.77;;
8574;SDS011;4325;42.520;27.448;2023-12-14T02:42:35;26.77;;;14.53;;
8574;SDS011;4325;42.520;27.448;2023-12-14T02:45:03;31.10;;;17.17;;
8574;SDS011;4325;42.520;27.448;2023-12-14T02:47:30;26.63;;;14.53;;
8574;SDS011;4325;42.520;27.448;2023-12-14T02:49:57;23.00;;;13.57;;
8574;SDS011;4325;42.520;27.448;2023-12-14T02:52:24;21.50;;;12.97;;
8574;SDS011;4325;42.520;27.448;2023-12-14T02:54:51;24.27;;;13.63;;
8574;SDS011;4325;42.520;27.448;2023-12-14T02:57:20;25.77;;;14.50;;
8574;SDS011;4325;42.520;27.448;2023-12-14T02:59:47;22.13;;;12.93;;
8574;SDS011;4325;42.520;27.448;2023-12-14T03:02:14;23.60;;;14.50;;
8574;SDS011;4325;42.520;27.448;2023-12-14T03:04:41;23.63;;;12.63;;
8574;SDS011;4325;42.520;27.448;2023-12-14T03:07:08;25.93;;;13.53;;
8574;SDS011;4325;42.520;27.448;2023-12-14T03:09:38;24.20;;;13.03;;
8574;SDS011;4325;42.520;27.448;2023-12-14T03:12:09;25.33;;;13.57;;
8574;SDS011;4325;42.520;27.448;2023-12-14T03:14:38;22.37;;;13.83;;
8574;SDS011;4325;42.520;27.448;2023-12-14T03:17:06;23.13;;;12.80;;
8574;SDS011;4325;42.520;27.448;2023-12-14T03:19:37;23.13;;;11.93;;
8574;SDS011;4325;42.520;27.448;2023-12-14T03:22:05;24.57;;;12.07;;
8574;SDS011;4325;42.520;27.448;2023-12-14T03:24:33;20.93;;;13.37;;
8574;SDS011;4325;42.520;27.448;2023-12-14T03:27:01;21.47;;;11.93;;
8574;SDS011;4325;42.520;27.448;2023-12-14T03:29:27;20.40;;;11.00;;
8574;SDS011;4325;42.520;27.448;2023-12-14T03:31:56;20.20;;;11.80;;
8574;SDS011;4325;42.520;27.448;2023-12-14T03:34:24;22.40;;;12.73;;
8574;SDS011;4325;42.520;27.448;2023-12-14T03:36:52;24.50;;;12.93;;
8574;SDS011;4325;42.520;27.448;2023-12-14T03:39:19;24.47;;;13.77;;
8574;SDS011;4325;42.520;27.448;2023-12-14T03:41:46;20.13;;;12.90;;
8574;SDS011;4325;42.520;27.448;2023-12-14T03:44:14;26.00;;;15.80;;
8574;SDS011;4325;42.520;27.448;2023-12-14T03:46:41;28.67;;;15.10;;
8574;SDS011;4325;42.520;27.448;2023-12-14T03:49:09;24.77;;;15.27;;
8574;SDS011;4325;42.520;27.448;2023-12-14T03:51:37;24.63;;;14.43;;
8574;SDS011;4325;42.520;27.448;2023-12-14T03:54:04;26.57;;;14.67;;
8574;SDS011;4325;42.520;27.448;2023-12-14T03:56:31;23.80;;;13.63;;
8574;SDS011;4325;42.520;27.448;2023-12-14T03:58:58;24.40;;;13.57;;
8574;SDS011;4325;42.520;27.448;2023-12-14T04:01:26;24.73;;;13.73;;
8574;SDS011;4325;42.520;27.448;2023-12-14T04:03:53;23.73;;;13.67;;
8574;SDS011;4325;42.520;27.448;2023-12-14T04:06:22;23.70;;;13.27;;
8574;SDS011;4325;42.520;27.448;2023-12-14T04:08:49;21.73;;;13.97;;
8574;SDS011;4325;42.520;27.448;2023-12-14T04:11:16;26.60;;;14.50;;
8574;SDS011;4325;42.520;27.448;2023-12-14T04:13:43;25.07;;;14.80;;
8574;SDS011;4325;42.520;27.448;2023-12-14T04:16:10;28.83;;;14.60;;
8574;SDS011;4325;42.520;27.448;2023-12-14T04:18:37;31.53;;;15.33;;
8574;SDS011;4325;42.520;27.448;2023-12-14T04:21:06;26.63;;;14.97;;
8574;SDS011;4325;42.520;27.448;2023-12-14T04:23:34;26.57;;;14.30;;
8574;SDS011;4325;42.520;27.448;2023-12-14T04:26:01;25.63;;;14.03;;
8574;SDS011;4325;42.520;27.448;2023-12-14T04:28:28;25.77;;;14.53;;
8574;SDS011;4325;42.520;27.448;2023-12-14T04:30:55;24.23;;;14.27;;
8574;SDS011;4325;42.520;27.448;2023-12-14T04:33:22;23.50;;;13.17;;
8574;SDS011;4325;42.520;27.448;2023-12-14T04:35:49;26.13;;;13.73;;
8574;SDS011;4325;42.520;27.448;2023-12-14T04:38:16;23.33;;;13.20;;
8574;SDS011;4325;42.520;27.448;2023-12-14T04:40:45;20.47;;;13.10;;
8574;SDS011;4325;42.520;27.448;2023-12-14T04:43:12;26.03;;;13.70;;
8574;SDS011;4325;42.520;27.448;2023-12-14T04:45:39;24.73;;;14.27;;
8574;SDS011;4325;42.520;27.448;2023-12-14T04:48:06;21.00;;;13.40;;
8574;SDS011;4325;42.520;27.448;2023-12-14T04:50:33;21.87;;;12.93;;
8574;SDS011;4325;42.520;27.448;2023-12-14T04:53:00;23.87;;;13.93;;
8574;SDS011;4325;42.520;27.448;2023-12-14T04:55:27;26.50;;;15.40;;
8574;SDS011;4325;42.520;27.448;2023-12-14T04:57:55;28.43;;;15.90;;
8574;SDS011;4325;42.520;27.448;2023-12-14T05:00:22;34.77;;;21.33;;
8574;SDS011;4325;42.520;27.448;2023-12-14T05:02:49;30.97;;;18.10;;
8574;SDS011;4325;42.520;27.448;2023-12-14T05:05:16;25.13;;;15.93;;
8574;SDS011;4325;42.520;27.448;2023-12-14T05:07:44;25.10;;;15.10;;
8574;SDS011;4325;42.520;27.448;2023-12-14T05:10:11;25.30;;;14.77;;
8574;SDS011;4325;42.520;27.448;2023-12-14T05:12:38;23.70;;;13.87;;
8574;SDS011;4325;42.520;27.448;2023-12-14T05:15:06;20.33;;;12.97;;
8574;SDS011;4325;42.520;27.448;2023-12-14T05:17:34;21.30;;;13.63;;
8574;SDS011;4325;42.520;27.448;2023-12-14T05:20:02;22.03;;;14.87;;
8574;SDS011;4325;42.520;27.448;2023-12-14T05:22:30;23.50;;;14.50;;
8574;SDS011;4325;42.520;27.448;2023-12-14T05:24:57;26.43;;;16.60;;
8574;SDS011;4325;42.520;27.448;2023-12-14T05:27:24;22.47;;;14.50;;
8574;SDS011;4325;42.520;27.448;2023-12-14T05:29:51;24.07;;;15.53;;
8574;SDS011;4325;42.520;27.448;2023-12-14T05:32:20;25.93;;;14.73;;
8574;SDS011;4325;42.520;27.448;2023-12-14T05:34:47;25.00;;;14.97;;
8574;SDS011;4325;42.520;27.448;2023-12-14T05:37:14;24.30;;;16.03;;
8574;SDS011;4325;42.520;27.448;2023-12-14T05:39:41;23.23;;;15.57;;
8574;SDS011;4325;42.520;27.448;2023-12-14T05:42:10;22.80;;;14.60;;
8574;SDS011;4325;42.520;27.448;2023-12-14T05:44:37;25.00;;;14.27;;
8574;SDS011;4325;42.520;27.448;2023-12-14T05:47:04;23.83;;;14.97;;
8574;SDS011;4325;42.520;27.448;2023-12-14T05:49:33;23.20;;;13.97;;
8574;SDS011;4325;42.520;27.448;2023-12-14T05:52:00;23.83;;;13.97;;
8574;SDS011;4325;42.520;27.448;2023-12-14T05:54:27;25.87;;;15.40;;
8574;SDS011;4325;42.520;27.448;2023-12-14T05:56:55;20.17;;;13.60;;
8574;SDS011;4325;42.520;27.448;2023-12-14T05:59:22;31.40;;;17.40;;
8574;SDS011;4325;42.520;27.448;2023-12-14T06:01:49;21.70;;;14.10;;
8574;SDS011;4325;42.520;27.448;2023-12-14T06:04:16;23.97;;;14.87;;
8574;SDS011;4325;42.520;27.448;2023-12-14T06:06:44;20.00;;;13.77;;
8574;SDS011;4325;42.520;27.448;2023-12-14T06:09:11;28.23;;;16.80;;
8574;SDS011;4325;42.520;27.448;2023-12-14T06:11:38;23.97;;;17.20;;
8574;SDS011;4325;42.520;27.448;2023-12-14T06:14:05;28.10;;;17.67;;
8574;SDS011;4325;42.520;27.448;2023-12-14T06:16:32;25.90;;;16.87;;
8574;SDS011;4325;42.520;27.448;2023-12-14T06:18:59;26.17;;;17.87;;
8574;SDS011;4325;42.520;27.448;2023-12-14T06:21:26;23.00;;;16.07;;
8574;SDS011;4325;42.520;27.448;2023-12-14T06:23:55;21.77;;;14.53;;
8574;SDS011;4325;42.520;27.448;2023-12-14T06:26:24;21.30;;;14.83;;
8574;SDS011;4325;42.520;27.448;2023-12-14T06:28:51;23.77;;;14.23;;
8574;SDS011;4325;42.520;27.448;2023-12-14T06:31:18;22.13;;;14.77;;
8574;SDS011;4325;42.520;27.448;2023-12-14T06:33:46;23.23;;;13.63;;
8574;SDS011;4325;42.520;27.448;2023-12-14T06:36:15;20.50;;;13.03;;
8574;SDS011;4325;42.520;27.448;2023-12-14T06:38:43;23.53;;;14.97;;
8574;SDS011;4325;42.520;27.448;2023-12-14T06:41:19;26.03;;;17.43;;
8574;SDS011;4325;42.520;27.448;2023-12-14T06:43:47;25.43;;;16.97;;
8574;SDS011;4325;42.520;27.448;2023-12-14T06:46:14;24.53;;;15.73;;
8574;SDS011;4325;42.520;27.448;2023-12-14T06:48:42;24.17;;;14.97;;
8574;SDS011;4325;42.520;27.448;2023-12-14T06:51:09;20.57;;;13.73;;
8574;SDS011;4325;42.520;27.448;2023-12-14T06:53:38;26.80;;;15.90;;
8574;SDS011;4325;42.520;27.448;2023-12-14T06:56:07;18.97;;;13.33;;
8574;SDS011;4325;42.520;27.448;2023-12-14T06:58:37;22.47;;;14.23;;
8574;SDS011;4325;42.520;27.448;2023-12-14T07:01:04;23.13;;;14.60;;
8574;SDS011;4325;42.520;27.448;2023-12-14T07:03:31;20.43;;;12.53;;
8574;SDS011;4325;42.520;27.448;2023-12-14T07:05:59;19.90;;;13.23;;
8574;SDS011;4325;42.520;27.448;2023-12-14T07:08:26;20.60;;;13.70;;
8574;SDS011;4325;42.520;27.448;2023-12-14T07:10:53;28.20;;;15.07;;
8574;SDS011;4325;42.520;27.448;2023-12-14T07:13:20;25.10;;;14.17;;
8574;SDS011;4325;42.520;27.448;2023-12-14T07:15:49;22.50;;;15.23;;
8574;SDS011;4325;42.520;27.448;2023-12-14T07:18:17;20.93;;;13.53;;
8574;SDS011;4325;42.520;27.448;2023-12-14T07:20:44;20.83;;;13.97;;
8574;SDS011;4325;42.520;27.448;2023-12-14T07:23:12;22.27;;;14.63;;
8574;SDS011;4325;42.520;27.448;2023-12-14T07:25:39;22.57;;;13.70;;
8574;SDS011;4325;42.520;27.448;2023-12-14T07:28:06;21.70;;;14.50;;
8574;SDS011;4325;42.520;27.448;2023-12-14T07:30:33;22.13;;;13.63;;
8574;SDS011;4325;42.520;27.448;2023-12-14T07:33:02;20.47;;;13.73;;
8574;SDS011;4325;42.520;27.448;2023-12-14T07:35:30;24.83;;;14.37;;
8574;SDS011;4325;42.520;27.448;2023-12-14T07:37:57;20.37;;;13.60;;
8574;SDS011;4325;42.520;27.448;2023-12-14T07:40:25;29.67;;;19.83;;
8574;SDS011;4325;42.520;27.448;2023-12-14T07:42:52;25.30;;;16.43;;
8574;SDS011;4325;42.520;27.448;2023-12-14T07:45:19;23.43;;;15.57;;
8574;SDS011;4325;42.520;27.448;2023-12-14T07:47:46;23.77;;;16.90;;
8574;SDS011;4325;42.520;27.448;2023-12-14T07:50:14;26.73;;;16.60;;
8574;SDS011;4325;42.520;27.448;2023-12-14T07:52:41;28.33;;;16.57;;
8574;SDS011;4325;42.520;27.448;2023-12-14T07:55:08;26.03;;;16.93;;
8574;SDS011;4325;42.520;27.448;2023-12-14T07:57:36;24.17;;;16.53;;
8574;SDS011;4325;42.520;27.448;2023-12-14T08:00:03;26.20;;;18.13;;
8574;SDS011;4325;42.520;27.448;2023-12-14T08:02:33;28.50;;;17.27;;
8574;SDS011;4325;42.520;27.448;2023-12-14T08:05:00;26.23;;;17.10;;
8574;SDS011;4325;42.520;27.448;2023-12-14T08:07:29;27.77;;;17.20;;
8574;SDS011;4325;42.520;27.448;2023-12-14T08:09:57;25.37;;;16.13;;
8574;SDS011;4325;42.520;27.448;2023-12-14T08:12:24;22.07;;;16.70;;
8574;SDS011;4325;42.520;27.448;2023-12-14T08:14:52;31.53;;;19.73;;
8574;SDS011;4325;42.520;27.448;2023-12-14T08:17:19;27.77;;;18.50;;
8574;SDS011;4325;42.520;27.448;2023-12-14T08:19:47;29.40;;;20.13;;
8574;SDS011;4325;42.520;27.448;2023-12-14T08:22:14;42.67;;;27.53;;
8574;SDS011;4325;42.520;27.448;2023-12-14T08:24:42;35.23;;;22.20;;
8574;SDS011;4325;42.520;27.448;2023-12-14T08:27:09;37.33;;;25.93;;
8574;SDS011;4325;42.520;27.448;2023-12-14T08:29:37;39.97;;;25.07;;
8574;SDS011;4325;42.520;27.448;2023-12-14T08:32:04;39.60;;;25.70;;
8574;SDS011;4325;42.520;27.448;2023-12-14T08:34:32;36.40;;;26.60;;
8574;SDS011;4325;42.520;27.448;2023-12-14T08:37:00;44.50;;;23.47;;
8574;SDS011;4325;42.520;27.448;2023-12-14T08:39:28;36.77;;;22.10;;
8574;SDS011;4325;42.520;27.448;2023-12-14T08:41:57;29.80;;;18.13;;
8574;SDS011;4325;42.520;27.448;2023-12-14T08:44:24;30.07;;;19.60;;
8574;SDS011;4325;42.520;27.448;2023-12-14T08:46:51;37.47;;;22.20;;
8574;SDS011;4325;42.520;27.448;2023-12-14T08:49:18;35.23;;;20.00;;
8574;SDS011;4325;42.520;27.448;2023-12-14T08:51:45;22.00;;;15.07;;
8574;SDS011;4325;42.520;27.448;2023-12-14T08:54:12;34.00;;;20.60;;
8574;SDS011;4325;42.520;27.448;2023-12-14T08:56:39;30.97;;;16.97;;
8574;SDS011;4325;42.520;27.448;2023-12-14T08:59:07;27.67;;;15.33;;
8574;SDS011;4325;42.520;27.448;2023-12-14T09:01:35;28.17;;;18.97;;
8574;SDS011;4325;42.520;27.448;2023-12-14T09:04:02;33.23;;;19.87;;
8574;SDS011;4325;42.520;27.448;2023-12-14T09:06:29;27.10;;;17.63;;
8574;SDS011;4325;42.520;27.448;2023-12-14T09:08:56;23.57;;;16.87;;
8574;SDS011;4325;42.520;27.448;2023-12-14T09:11:23;35.37;;;18.17;;
8574;SDS011;4325;42.520;27.448;2023-12-14T09:13:50;25.47;;;15.97;;
8574;SDS011;4325;42.520;27.448;2023-12-14T09:16:18;30.83;;;15.37;;
8574;SDS011;4325;42.520;27.448;2023-12-14T09:18:45;24.90;;;15.70;;
8574;SDS011;4325;42.520;27.448;2023-12-14T09:21:12;24.97;;;15.07;;
8574;SDS011;4325;42.520;27.448;2023-12-14T09:23:40;25.10;;;14.90;;
8574;SDS011;4325;42.520;27.448;2023-12-14T09:26:07;24.17;;;16.33;;
8574;SDS011;4325;42.520;27.448;2023-12-14T09:28:35;24.97;;;14.50;;
8574;SDS011;4325;42.520;27.448;2023-12-14T09:31:03;30.23;;;15.83;;
8574;SDS011;4325;42.520;27.448;2023-12-14T09:33:32;25.07;;;14.07;;
8574;SDS011;4325;42.520;27.448;2023-12-14T09:35:59;26.20;;;14.00;;
8574;SDS011;4325;42.520;27.448;2023-12-14T09:38:26;21.03;;;14.47;;
8574;SDS011;4325;42.520;27.448;2023-12-14T09:40:53;18.63;;;12.70;;
8574;SDS011;4325;42.520;27.448;2023-12-14T09:43:20;32.03;;;13.70;;
8574;SDS011;4325;42.520;27.448;2023-12-14T09:45:48;20.80;;;14.03;;
8574;SDS011;4325;42.520;27.448;2023-12-14T09:48:16;19.67;;;12.30;;
8574;SDS011;4325;42.520;27.448;2023-12-14T09:50:45;21.87;;;13.20;;
8574;SDS011;4325;42.520;27.448;2023-12-14T09:53:13;22.43;;;13.13;;
8574;SDS011;4325;42.520;27.448;2023-12-14T09:55:40;21.37;;;13.23;;
8574;SDS011;4325;42.520;27.448;2023-12-14T09:58:09;18.17;;;12.33;;
8574;SDS011;4325;42.520;27.448;2023-12-14T10:00:38;19.13;;;11.50;;
8574;SDS011;4325;42.520;27.448;2023-12-14T10:03:21;17.03;;;11.37;;
8574;SDS011;4325;42.520;27.448;2023-12-14T10:05:52;21.50;;;12.00;;
8574;SDS011;4325;42.520;27.448;2023-12-14T10:08:20;19.90;;;12.43;;
8574;SDS011;4325;42.520;27.448;2023-12-14T10:10:50;16.50;;;11.43;;
8574;SDS011;4325;42.520;27.448;2023-12-14T10:13:18;17.60;;;9.80;;
8574;SDS011;4325;42.520;27.448;2023-12-14T10:15:46;22.60;;;12.60;;
8574;SDS011;4325;42.520;27.448;2023-12-14T10:18:19;15.77;;;10.33;;
8574;SDS011;4325;42.520;27.448;2023-12-14T10:20:49;16.70;;;11.73;;
8574;SDS011;4325;42.520;27.448;2023-12-14T10:23:18;24.77;;;13.83;;
8574;SDS011;4325;42.520;27.448;2023-12-14T10:25:46;23.57;;;14.53;;
8574;SDS011;4325;42.520;27.448;2023-12-14T10:28:13;24.47;;;16.10;;
8574;SDS011;4325;42.520;27.448;2023-12-14T10:30:40;30.17;;;18.03;;
8574;SDS011;4325;42.520;27.448;2023-12-14T10:33:07;35.13;;;19.53;;
8574;SDS011;4325;42.520;27.448;2023-12-14T10:35:35;26.47;;;16.50;;
8574;SDS011;4325;42.520;27.448;2023-12-14T10:38:03;32.53;;;15.67;;
8574;SDS011;4325;42.520;27.448;2023-12-14T10:40:32;24.47;;;14.30;;
8574;SDS011;4325;42.520;27.448;2023-12-14T10:43:02;23.87;;;12.93;;
8574;SDS011;4325;42.520;27.448;2023-12-14T10:45:32;21.13;;;12.97;;
8574;SDS011;4325;42.520;27.448;2023-12-14T10:47:59;19.47;;;12.57;;
8574;SDS011;4325;42.520;27.448;2023-12-14T10:50:29;21.07;;;13.17;;
8574;SDS011;4325;42.520;27.448;2023-12-14T10:52:56;20.43;;;11.13;;
8574;SDS011;4325;42.520;27.448;2023-12-14T10:55:26;18.87;;;10.47;;
8574;SDS011;4325;42.520;27.448;2023-12-14T10:57:59;19.77;;;11.30;;
8574;SDS011;4325;42.520;27.448;2023-12-14T11:00:26;20.03;;;10.50;;
8574;SDS011;4325;42.520;27.448;2023-12-14T11:02:54;23.23;;;11.43;;
8574;SDS011;4325;42.520;27.448;2023-12-14T11:05:22;19.80;;;7.93;;
8574;SDS011;4325;42.520;27.448;2023-12-14T11:07:54;11.53;;;6.50;;
8574;SDS011;4325;42.520;27.448;2023-12-14T11:10:26;8.80;;;6.30;;
8574;SDS011;4325;42.520;27.448;2023-12-14T11:12:56;12.27;;;5.37;;
8574;SDS011;4325;42.520;27.448;2023-12-14T11:15:28;8.73;;;5.53;;
8574;SDS011;4325;42.520;27.448;2023-12-14T11:20:56;11.77;;;5.40;;
8574;SDS011;4325;42.520;27.448;2023-12-14T11:23:35;7.20;;;5.33;;
8574;SDS011;4325;42.520;27.448;2023-12-14T11:26:04;12.90;;;5.67;;
8574;SDS011;4325;42.520;27.448;2023-12-14T11:28:33;9.27;;;5.00;;
8574;SDS011;4325;42.520;27.448;2023-12-14T11:31:03;10.50;;;5.47;;
8574;SDS011;4325;42.520;27.448;2023-12-14T11:33:32;9.93;;;6.00;;
8574;SDS011;4325;42.520;27.448;2023-12-14T11:36:00;10.67;;;5.60;;
8574;SDS011;4325;42.520;27.448;2023-12-14T11:38:28;12.23;;;6.00;;
8574;SDS011;4325;42.520;27.448;2023-12-14T11:40:55;13.33;;;6.17;;
8574;SDS011;4325;42.520;27.448;2023-12-14T11:43:22;9.87;;;6.17;;
8574;SDS011;4325;42.520;27.448;2023-12-14T11:45:51;9.13;;;6.63;;
8574;SDS011;4325;42.520;27.448;2023-12-14T11:48:21;9.67;;;6.93;;
8574;SDS011;4325;42.520;27.448;2023-12-14T11:50:48;10.53;;;5.93;;
8574;SDS011;4325;42.520;27.448;2023-12-14T11:53:15;9.03;;;5.30;;
8574;SDS011;4325;42.520;27.448;2023-12-14T11:55:42;11.93;;;5.60;;
8574;SDS011;4325;42.520;27.448;2023-12-14T11:58:11;11.10;;;6.30;;
8574;SDS011;4325;42.520;27.448;2023-12-14T12:00:40;8.57;;;5.37;;
8574;SDS011;4325;42.520;27.448;2023-12-14T12:03:08;12.67;;;6.30;;
8574;SDS011;4325;42.520;27.448;2023-12-14T12:05:37;6.73;;;5.17;;
8574;SDS011;4325;42.520;27.448;2023-12-14T12:08:06;11.33;;;6.10;;
8574;SDS011;4325;42.520;27.448;2023-12-14T12:10:33;10.27;;;6.27;;
8574;SDS011;4325;42.520;27.448;2023-12-14T12:13:01;6.83;;;5.10;;
8574;SDS011;4325;42.520;27.448;2023-12-14T12:15:30;8.27;;;4.90;;
8574;SDS011;4325;42.520;27.448;2023-12-14T12:17:58;8.60;;;5.30;;
8574;SDS011;4325;42.520;27.448;2023-12-14T12:20:25;9.20;;;5.60;;
8574;SDS011;4325;42.520;27.448;2023-12-14T12:22:54;11.83;;;6.30;;
8574;SDS011;4325;42.520;27.448;2023-12-14T12:25:21;9.33;;;6.73;;
8574;SDS011;4325;42.520;27.448;2023-12-14T12:27:49;9.83;;;6.07;;
8574;SDS011;4325;42.520;27.448;2023-12-14T12:30:16;12.17;;;6.20;;
8574;SDS011;4325;42.520;27.448;2023-12-14T12:32:43;9.30;;;5.57;;
8574;SDS011;4325;42.520;27.448;2023-12-14T12:35:10;8.07;;;4.63;;
8574;SDS011;4325;42.520;27.448;2023-12-14T12:37:37;9.73;;;5.97;;
8574;SDS011;4325;42.520;27.448;2023-12-14T12:40:06;6.27;;;4.83;;
8574;SDS011;4325;42.520;27.448;2023-12-14T12:42:34;7.13;;;4.37;;
8574;SDS011;4325;42.520;27.448;2023-12-14T12:45:01;7.23;;;4.87;;
8574;SDS011;4325;42.520;27.448;2023-12-14T12:47:29;8.97;;;4.93;;
8574;SDS011;4325;42.520;27.448;2023-12-14T12:49:56;8.07;;;5.47;;
8574;SDS011;4325;42.520;27.448;2023-12-14T12:52:23;8.30;;;6.17;;
8574;SDS011;4325;42.520;27.448;2023-12-14T12:54:50;8.43;;;5.43;;
8574;SDS011;4325;42.520;27.448;2023-12-14T12:57:19;7.53;;;4.97;;
8574;SDS011;4325;42.520;27.448;2023-12-14T12:59:46;6.03;;;5.03;;
8574;SDS011;4325;42.520;27.448;2023-12-14T13:02:13;10.43;;;5.20;;
8574;SDS011;4325;42.520;27.448;2023-12-14T13:04:40;7.43;;;5.37;;
8574;SDS011;4325;42.520;27.448;2023-12-14T13:07:07;8.90;;;4.83;;
8574;SDS011;4325;42.520;27.448;2023-12-14T13:09:34;9.33;;;6.63;;
8574;SDS011;4325;42.520;27.448;2023-12-14T13:12:02;12.17;;;5.63;;
8574;SDS011;4325;42.520;27.448;2023-12-14T13:14:32;7.90;;;4.83;;
8574;SDS011;4325;42.520;27.448;2023-12-14T13:16:59;9.57;;;5.87;;
8574;SDS011;4325;42.520;27.448;2023-12-14T13:19:26;7.97;;;5.47;;
8574;SDS011;4325;42.520;27.448;2023-12-14T13:21:54;9.17;;;5.87;;
8574;SDS011;4325;42.520;27.448;2023-12-14T13:24:23;14.77;;;7.27;;
8574;SDS011;4325;42.520;27.448;2023-12-14T13:26:50;8.97;;;6.47;;
8574;SDS011;4325;42.520;27.448;2023-12-14T13:29:17;14.80;;;6.87;;
8574;SDS011;4325;42.520;27.448;2023-12-14T13:31:47;14.97;;;6.10;;
8574;SDS011;4325;42.520;27.448;2023-12-14T13:34:14;9.90;;;5.57;;
8574;SDS011;4325;42.520;27.448;2023-12-14T13:36:41;12.57;;;6.43;;
8574;SDS011;4325;42.520;27.448;2023-12-14T13:39:08;11.43;;;6.47;;
8574;SDS011;4325;42.520;27.448;2023-12-14T13:41:36;8.97;;;5.97;;
8574;SDS011;4325;42.520;27.448;2023-12-14T13:44:03;11.17;;;6.83;;
8574;SDS011;4325;42.520;27.448;2023-12-14T13:46:30;21.77;;;7.10;;
8574;SDS011;4325;42.520;27.448;2023-12-14T13:48:59;12.00;;;7.27;;
8574;SDS011;4325;42.520;27.448;2023-12-14T13:51:27;14.03;;;8.20;;
8574;SDS011;4325;42.520;27.448;2023-12-14T13:53:55;16.90;;;7.93;;
8574;SDS011;4325;42.520;27.448;2023-12-14T13:56:22;15.80;;;7.83;;
8574;SDS011;4325;42.520;27.448;2023-12-14T13:58:49;15.37;;;7.67;;
8574;SDS011;4325;42.520;27.448;2023-12-14T14:01:16;19.20;;;8.33;;
8574;SDS011;4325;42.520;27.448;2023-12-14T14:03:44;16.83;;;8.80;;
8574;SDS011;4325;42.520;27.448;2023-12-14T14:06:13;10.67;;;7.83;;
8574;SDS011;4325;42.520;27.448;2023-12-14T14:08:40;13.43;;;8.50;;
8574;SDS011;4325;42.520;27.448;2023-12-14T14:11:07;26.60;;;9.07;;
8574;SDS011;4325;42.520;27.448;2023-12-14T14:13:34;12.17;;;7.83;;
8574;SDS011;4325;42.520;27.448;2023-12-14T14:16:01;13.80;;;7.83;;
8574;SDS011;4325;42.520;27.448;2023-12-14T14:18:30;20.57;;;8.53;;
8574;SDS011;4325;42.520;27.448;2023-12-14T14:20:57;16.83;;;9.17;;
8574;SDS011;4325;42.520;27.448;2023-12-14T14:23:25;14.30;;;7.90;;
8574;SDS011;4325;42.520;27.448;2023-12-14T14:25:52;11.17;;;7.47;;
8574;SDS011;4325;42.520;27.448;2023-12-14T14:28:20;14.57;;;7.57;;
8574;SDS011;4325;42.520;27.448;2023-12-14T14:30:47;15.23;;;7.00;;
8574;SDS011;4325;42.520;27.448;2023-12-14T14:33:14;18.63;;;8.50;;
8574;SDS011;4325;42.520;27.448;2023-12-14T14:35:43;12.90;;;8.20;;
8574;SDS011;4325;42.520;27.448;2023-12-14T14:38:11;12.77;;;7.47;;
8574;SDS011;4325;42.520;27.448;2023-12-14T14:40:40;14.90;;;7.30;;
8574;SDS011;4325;42.520;27.448;2023-12-14T14:43:08;10.33;;;7.63;;